Morgan City — WDE7077 — position and weather

sailwx.info

Track history (hours):
 
Tides and Currents Weather Stations Pressure Air Temp Water Temp Dewpoint Dewpoint Depression Visibility Wind Speed Wind Dir Waves Ship Positions

Morgan City

Owner: Kirby Inland Marine LP, Houston, TX. More information available from US FCC via Universal Licensing System and Coast Guard Vessel Documentation Center.

Last reported at 2017-Dec-16 03:30 UTC. Time now 2017-Dec-16 03:39 UTC.
Position N 30°08' W 093°19'.

Length 17 m; draft 2.6 m.

Type: . MMSI: 367388680.

Date/timePositionNaut miles runAvg speedWind from/ knotsBaromVisibWave heightAir tempDewpointWater temp
2017-Dec-16 03:30N 30°08' W 093°19'0 0.0
2017-Dec-16 03:00N 30°08' W 093°19'0 0.0
2017-Dec-16 02:30N 30°08' W 093°19'0 0.0
2017-Dec-16 02:00N 30°08' W 093°19'0 0.0
2017-Dec-16 01:30N 30°08' W 093°19'0 0.0
2017-Dec-16 01:00N 30°08' W 093°19'0 0.0
2017-Dec-16 00:30N 30°08' W 093°19'0 0.0
2017-Dec-16 00:00N 30°08' W 093°19'0 0.0
2017-Dec-15 23:30N 30°08' W 093°19'1 3.0
2017-Dec-15 23:00N 30°07' W 093°20'2 4.9
2017-Dec-15 22:30N 30°04' W 093°20'2 3.8
2017-Dec-15 22:00N 30°04' W 093°22'1 1.0
2017-Dec-15 21:30N 30°04' W 093°22'0 0.0
2017-Dec-15 21:00N 30°04' W 093°22'0 0.1
2017-Dec-15 20:30N 30°04' W 093°22'0 0.4
2017-Dec-15 20:00N 30°04' W 093°22'1 2.1
2017-Dec-15 19:30N 30°04' W 093°23'1 2.2
2017-Dec-15 19:00N 30°04' W 093°25'2 4.4
2017-Dec-15 18:30N 30°04' W 093°27'3 5.2
2017-Dec-15 18:00N 30°04' W 093°30'  
2017-Dec-13 00:00N 27°49' W 097°26'0 0.0
2017-Dec-12 15:28N 27°49' W 097°26'0 0.0
2017-Dec-12 14:58N 27°49' W 097°26'0 0.0
2017-Dec-12 14:28N 27°49' W 097°26'0 0.0
2017-Dec-12 13:58N 27°49' W 097°26'0 0.0
2017-Dec-12 13:28N 27°49' W 097°26'0 0.0
2017-Dec-12 12:58N 27°49' W 097°26'0 0.0
2017-Dec-12 12:19N 27°49' W 097°26'0 0.0
2017-Dec-12 11:58N 27°49' W 097°26'0 0.0
2017-Dec-12 11:28N 27°49' W 097°26'0 0.0
2017-Dec-12 10:58N 27°49' W 097°26'0 0.0
2017-Dec-12 10:28N 27°49' W 097°26'0 0.0
2017-Dec-12 08:34N 27°49' W 097°26'0 0.0
2017-Dec-12 08:28N 27°49' W 097°26'0 0.0
2017-Dec-12 07:58N 27°49' W 097°26'0 0.0
2017-Dec-12 07:28N 27°49' W 097°26'0 0.0
2017-Dec-12 06:58N 27°49' W 097°26'0 0.0
2017-Dec-12 06:22N 27°49' W 097°26'0 0.0
2017-Dec-12 05:58N 27°49' W 097°26'0 0.0
2017-Dec-12 05:28N 27°49' W 097°26'0 0.0
2017-Dec-12 04:58N 27°49' W 097°26'0 0.0
2017-Dec-12 04:28N 27°49' W 097°26'0 0.0
2017-Dec-12 03:55N 27°49' W 097°26'0 0.0
2017-Dec-12 03:28N 27°49' W 097°26'0 0.0
2017-Dec-12 02:58N 27°49' W 097°26'0 0.0
2017-Dec-12 02:28N 27°49' W 097°26'0 0.0
2017-Dec-12 01:58N 27°49' W 097°26'0 0.0
2017-Dec-12 01:25N 27°49' W 097°26'0 0.0
2017-Dec-12 00:58N 27°49' W 097°26'0 0.0
2017-Dec-12 00:28N 27°49' W 097°26'0 0.0
2017-Dec-11 23:58N 27°49' W 097°26'0 0.0
2017-Dec-11 23:28N 27°49' W 097°26'0 0.0
2017-Dec-11 22:58N 27°49' W 097°26'0 0.0
2017-Dec-11 22:28N 27°49' W 097°26'0 0.0
2017-Dec-11 21:58N 27°49' W 097°26'0 0.0
2017-Dec-11 21:28N 27°49' W 097°26'0 0.0
2017-Dec-11 21:00N 27°49' W 097°26'0 0.0
2017-Dec-11 20:29N 27°49' W 097°26'0 0.0
2017-Dec-11 20:00N 27°49' W 097°26'0 0.0
2017-Dec-11 04:15N 27°49' W 097°26'0 0.0
2017-Dec-11 03:59N 27°49' W 097°26'0 0.0
2017-Dec-11 03:30N 27°49' W 097°26'1 1.2
2017-Dec-11 03:00N 27°49' W 097°27'3 5.5
2017-Dec-11 02:30N 27°50' W 097°30'0 0.1
2017-Dec-11 02:00N 27°50' W 097°30'1 1.5
2017-Dec-11 01:29N 27°49' W 097°29'2 4.8
2017-Dec-11 01:00N 27°49' W 097°26'3 6.0
2017-Dec-11 00:30N 27°49' W 097°23'3 6.5
2017-Dec-11 00:00N 27°49' W 097°19'3 5.9
2017-Dec-10 23:30N 27°49' W 097°16'3 6.2
2017-Dec-10 22:59N 27°49' W 097°12'3 5.8
2017-Dec-10 22:30N 27°50' W 097°09'3 5.4
2017-Dec-10 21:59N 27°50' W 097°06'2 5.0
2017-Dec-10 21:30N 27°51' W 097°04'4 6.5
2017-Dec-10 20:57N 27°54' W 097°03'3 6.0
2017-Dec-10 20:29N 27°57' W 097°04'3 5.4
2017-Dec-10 20:00N 27°59' W 097°02'3 5.8
2017-Dec-10 19:29N 28°02' W 097°00'3 5.6
2017-Dec-10 19:00N 28°04' W 096°58'14 4.9
2017-Dec-10 16:12N 28°14' W 096°48'0 0.1
2017-Dec-10 16:00N 28°14' W 096°48'2 3.9
2017-Dec-10 15:29N 28°15' W 096°46'3 5.2
2017-Dec-10 14:59N 28°17' W 096°43'2 5.0
2017-Dec-10 14:29N 28°18' W 096°41'2 3.9
2017-Dec-10 14:00N 28°19' W 096°40'0 0.1
2017-Dec-10 13:29N 28°19' W 096°39'1 1.5
2017-Dec-10 13:00N 28°20' W 096°39'  
2017-Dec-08 01:32N 30°04' W 093°38'1 4.9
2017-Dec-08 01:24N 30°04' W 093°37'2 4.1
2017-Dec-08 00:55N 30°04' W 093°35'1 2.8
2017-Dec-08 00:30N 30°04' W 093°33'2 3.8
2017-Dec-08 00:00N 30°04' W 093°31'2 4.5
2017-Dec-07 23:30N 30°04' W 093°28'2 4.4
2017-Dec-07 23:00N 30°04' W 093°26'2 4.3
2017-Dec-07 22:31N 30°04' W 093°23'2 3.0
2017-Dec-07 22:00N 30°04' W 093°22'0 0.0
2017-Dec-07 21:31N 30°04' W 093°22'0 0.9
2017-Dec-07 21:01N 30°04' W 093°21'0 0.9
2017-Dec-07 20:30N 30°04' W 093°22'0 0.0
2017-Dec-07 20:01N 30°04' W 093°22'0 0.2
2017-Dec-07 19:31N 30°04' W 093°22'0 0.0
2017-Dec-07 18:58N 30°04' W 093°22'0 0.1
2017-Dec-07 18:30N 30°04' W 093°22'0 0.0
2017-Dec-07 18:00N 30°04' W 093°22'0 0.0
2017-Dec-07 17:30N 30°04' W 093°22'0 0.0
2017-Dec-07 17:00N 30°04' W 093°22'0 0.0
2017-Dec-07 16:29N 30°04' W 093°22'0 0.0
2017-Dec-07 15:59N 30°04' W 093°22'0 0.0
2017-Dec-07 15:29N 30°04' W 093°22'0 0.0
2017-Dec-07 14:59N 30°04' W 093°22'0 0.0
2017-Dec-07 14:29N 30°04' W 093°22'0 0.1
2017-Dec-07 14:00N 30°04' W 093°22'0 0.0
2017-Dec-07 13:30N 30°04' W 093°22'0 0.0
2017-Dec-07 13:00N 30°04' W 093°22'0 0.0
2017-Dec-07 12:30N 30°04' W 093°22'0 0.0
2017-Dec-07 12:00N 30°04' W 093°22'0 0.0
2017-Dec-07 11:30N 30°04' W 093°22'1 2.5
2017-Dec-07 11:00N 30°04' W 093°23'3 6.4
2017-Dec-07 10:30N 30°04' W 093°27'3 6.5
2017-Dec-07 10:00N 30°04' W 093°31'11 6.9
2017-Dec-07 08:26N 30°03' W 093°43'  
Track history (hours):
 
Tides and Currents Weather Stations Pressure Air Temp Water Temp Dewpoint Dewpoint Depression Visibility Wind Speed Wind Dir Waves Ship Positions

Morgan City

Owner: Kirby Inland Marine LP, Houston, TX. More information available from US FCC via Universal Licensing System and Coast Guard Vessel Documentation Center.

Last reported at 2017-Dec-16 03:30 UTC. Time now 2017-Dec-16 03:39 UTC.
Position N 30°08' W 093°19'.

Length 17 m; draft 2.6 m.

Type: . MMSI: 367388680.

Date/timePositionNaut miles runAvg speedWind from/ knotsBaromVisibWave heightAir tempDewpointWater temp
2017-Dec-16 03:30N 30°08' W 093°19'0 0.0
2017-Dec-16 03:00N 30°08' W 093°19'0 0.0
2017-Dec-16 02:30N 30°08' W 093°19'0 0.0
2017-Dec-16 02:00N 30°08' W 093°19'0 0.0
2017-Dec-16 01:30N 30°08' W 093°19'0 0.0
2017-Dec-16 01:00N 30°08' W 093°19'0 0.0
2017-Dec-16 00:30N 30°08' W 093°19'0 0.0
2017-Dec-16 00:00N 30°08' W 093°19'0 0.0
2017-Dec-15 23:30N 30°08' W 093°19'1 3.0
2017-Dec-15 23:00N 30°07' W 093°20'2 4.9
2017-Dec-15 22:30N 30°04' W 093°20'2 3.8
2017-Dec-15 22:00N 30°04' W 093°22'1 1.0
2017-Dec-15 21:30N 30°04' W 093°22'0 0.0
2017-Dec-15 21:00N 30°04' W 093°22'0 0.1
2017-Dec-15 20:30N 30°04' W 093°22'0 0.4
2017-Dec-15 20:00N 30°04' W 093°22'1 2.1
2017-Dec-15 19:30N 30°04' W 093°23'1 2.2
2017-Dec-15 19:00N 30°04' W 093°25'2 4.4
2017-Dec-15 18:30N 30°04' W 093°27'3 5.2
2017-Dec-15 18:00N 30°04' W 093°30'  
2017-Dec-13 00:00N 27°49' W 097°26'0 0.0
2017-Dec-12 15:28N 27°49' W 097°26'0 0.0
2017-Dec-12 14:58N 27°49' W 097°26'0 0.0
2017-Dec-12 14:28N 27°49' W 097°26'0 0.0
2017-Dec-12 13:58N 27°49' W 097°26'0 0.0
2017-Dec-12 13:28N 27°49' W 097°26'0 0.0
2017-Dec-12 12:58N 27°49' W 097°26'0 0.0
2017-Dec-12 12:19N 27°49' W 097°26'0 0.0
2017-Dec-12 11:58N 27°49' W 097°26'0 0.0
2017-Dec-12 11:28N 27°49' W 097°26'0 0.0
2017-Dec-12 10:58N 27°49' W 097°26'0 0.0
2017-Dec-12 10:28N 27°49' W 097°26'0 0.0
2017-Dec-12 08:34N 27°49' W 097°26'0 0.0
2017-Dec-12 08:28N 27°49' W 097°26'0 0.0
2017-Dec-12 07:58N 27°49' W 097°26'0 0.0
2017-Dec-12 07:28N 27°49' W 097°26'0 0.0
2017-Dec-12 06:58N 27°49' W 097°26'0 0.0
2017-Dec-12 06:22N 27°49' W 097°26'0 0.0
2017-Dec-12 05:58N 27°49' W 097°26'0 0.0
2017-Dec-12 05:28N 27°49' W 097°26'0 0.0
2017-Dec-12 04:58N 27°49' W 097°26'0 0.0
2017-Dec-12 04:28N 27°49' W 097°26'0 0.0
2017-Dec-12 03:55N 27°49' W 097°26'0 0.0
2017-Dec-12 03:28N 27°49' W 097°26'0 0.0
2017-Dec-12 02:58N 27°49' W 097°26'0 0.0
2017-Dec-12 02:28N 27°49' W 097°26'0 0.0
2017-Dec-12 01:58N 27°49' W 097°26'0 0.0
2017-Dec-12 01:25N 27°49' W 097°26'0 0.0
2017-Dec-12 00:58N 27°49' W 097°26'0 0.0
2017-Dec-12 00:28N 27°49' W 097°26'0 0.0
2017-Dec-11 23:58N 27°49' W 097°26'0 0.0
2017-Dec-11 23:28N 27°49' W 097°26'0 0.0
2017-Dec-11 22:58N 27°49' W 097°26'0 0.0
2017-Dec-11 22:28N 27°49' W 097°26'0 0.0
2017-Dec-11 21:58N 27°49' W 097°26'0 0.0
2017-Dec-11 21:28N 27°49' W 097°26'0 0.0
2017-Dec-11 21:00N 27°49' W 097°26'0 0.0
2017-Dec-11 20:29N 27°49' W 097°26'0 0.0
2017-Dec-11 20:00N 27°49' W 097°26'0 0.0
2017-Dec-11 04:15N 27°49' W 097°26'0 0.0
2017-Dec-11 03:59N 27°49' W 097°26'0 0.0
2017-Dec-11 03:30N 27°49' W 097°26'1 1.2
2017-Dec-11 03:00N 27°49' W 097°27'3 5.5
2017-Dec-11 02:30N 27°50' W 097°30'0 0.1
2017-Dec-11 02:00N 27°50' W 097°30'1 1.5
2017-Dec-11 01:29N 27°49' W 097°29'2 4.8
2017-Dec-11 01:00N 27°49' W 097°26'3 6.0
2017-Dec-11 00:30N 27°49' W 097°23'3 6.5
2017-Dec-11 00:00N 27°49' W 097°19'3 5.9
2017-Dec-10 23:30N 27°49' W 097°16'3 6.2
2017-Dec-10 22:59N 27°49' W 097°12'3 5.8
2017-Dec-10 22:30N 27°50' W 097°09'3 5.4
2017-Dec-10 21:59N 27°50' W 097°06'2 5.0
2017-Dec-10 21:30N 27°51' W 097°04'4 6.5
2017-Dec-10 20:57N 27°54' W 097°03'3 6.0
2017-Dec-10 20:29N 27°57' W 097°04'3 5.4
2017-Dec-10 20:00N 27°59' W 097°02'3 5.8
2017-Dec-10 19:29N 28°02' W 097°00'3 5.6
2017-Dec-10 19:00N 28°04' W 096°58'14 4.9
2017-Dec-10 16:12N 28°14' W 096°48'0 0.1
2017-Dec-10 16:00N 28°14' W 096°48'2 3.9
2017-Dec-10 15:29N 28°15' W 096°46'3 5.2
2017-Dec-10 14:59N 28°17' W 096°43'2 5.0
2017-Dec-10 14:29N 28°18' W 096°41'2 3.9
2017-Dec-10 14:00N 28°19' W 096°40'0 0.1
2017-Dec-10 13:29N 28°19' W 096°39'1 1.5
2017-Dec-10 13:00N 28°20' W 096°39'  
2017-Dec-08 01:32N 30°04' W 093°38'1 4.9
2017-Dec-08 01:24N 30°04' W 093°37'2 4.1
2017-Dec-08 00:55N 30°04' W 093°35'1 2.8
2017-Dec-08 00:30N 30°04' W 093°33'2 3.8
2017-Dec-08 00:00N 30°04' W 093°31'2 4.5
2017-Dec-07 23:30N 30°04' W 093°28'2 4.4
2017-Dec-07 23:00N 30°04' W 093°26'2 4.3
2017-Dec-07 22:31N 30°04' W 093°23'2 3.0
2017-Dec-07 22:00N 30°04' W 093°22'0 0.0
2017-Dec-07 21:31N 30°04' W 093°22'0 0.9
2017-Dec-07 21:01N 30°04' W 093°21'0 0.9
2017-Dec-07 20:30N 30°04' W 093°22'0 0.0
2017-Dec-07 20:01N 30°04' W 093°22'0 0.2
2017-Dec-07 19:31N 30°04' W 093°22'0 0.0
2017-Dec-07 18:58N 30°04' W 093°22'0 0.1
2017-Dec-07 18:30N 30°04' W 093°22'0 0.0
2017-Dec-07 18:00N 30°04' W 093°22'0 0.0
2017-Dec-07 17:30N 30°04' W 093°22'0 0.0
2017-Dec-07 17:00N 30°04' W 093°22'0 0.0
2017-Dec-07 16:29N 30°04' W 093°22'0 0.0
2017-Dec-07 15:59N 30°04' W 093°22'0 0.0
2017-Dec-07 15:29N 30°04' W 093°22'0 0.0
2017-Dec-07 14:59N 30°04' W 093°22'0 0.0
2017-Dec-07 14:29N 30°04' W 093°22'0 0.1
2017-Dec-07 14:00N 30°04' W 093°22'0 0.0
2017-Dec-07 13:30N 30°04' W 093°22'0 0.0
2017-Dec-07 13:00N 30°04' W 093°22'0 0.0
2017-Dec-07 12:30N 30°04' W 093°22'0 0.0
2017-Dec-07 12:00N 30°04' W 093°22'0 0.0
2017-Dec-07 11:30N 30°04' W 093°22'1 2.5
2017-Dec-07 11:00N 30°04' W 093°23'3 6.4
2017-Dec-07 10:30N 30°04' W 093°27'3 6.5
2017-Dec-07 10:00N 30°04' W 093°31'11 6.9
2017-Dec-07 08:26N 30°03' W 093°43'  

Dump ship's entire track history